Terminal Aerodrome Forecast
Issued by NWS North Platte, NE

Home | Current Version | Previous Version | Text Only | Print | Product List | Glossary Off
Versions: 1 2 3 4 5 6 7 8 9 10 11 12 13 14 15

000
FTUS43 KLBF 241120
TAFVTN
TAF
KVTN 241120Z 2412/2512 26004KT P6SM FEW250
     FM241600 20006KT P6SM FEW250
     FM242200 17014G21KT P6SM FEW250
     FM250500 17014G22KT P6SM FEW200 WS020/18045KT
     FM250800 18013G19KT P6SM SCT250 WS020/20040KT
     FM251100 23008KT P6SM SCT150=

USA.gov is the U.S. government's official web portal to all federal, state and local government web resources and services.